Time;durP1;ratioP1;P1;durP2;ratioP2;P2;SDS_P1;SDS_P2;PMS_P1;PMS_P2;Temp;Humidity;BMP_temperature;BMP_pressure;BME280_temperature;BME280_humidity;BME280_pressure;Samples;Min_cycle;Max_cycle;Signal;HPM_P1;HPM_P2
2023/08/02 00:02:15;;;;;;;8.48;3.10;;;;;;;15.15;100.00;99955.19;5037808;28;20041;-60
2023/08/02 00:04:41;;;;;;;8.95;2.55;;;;;;;15.11;100.00;99938.69;5033916;28;20503;-59
2023/08/02 00:07:07;;;;;;;11.57;3.55;;;;;;;15.07;100.00;99943.03;5037643;28;20029;-60
2023/08/02 00:09:32;;;;;;;7.45;2.92;;;;;;;15.04;100.00;99940.41;5042266;28;20386;-61
2023/08/02 00:11:58;;;;;;;9.48;2.97;;;;;;;15.01;100.00;99940.41;5030791;28;20140;-60
2023/08/02 00:14:23;;;;;;;9.02;2.67;;;;;;;14.99;100.00;99949.97;5043149;28;20453;-60
2023/08/02 00:16:49;;;;;;;7.10;2.50;;;;;;;14.97;100.00;99947.38;5030618;28;20520;-60
2023/08/02 00:19:15;;;;;;;7.97;2.60;;;;;;;14.92;100.00;99950.84;5031868;28;20071;-60
2023/08/02 00:21:40;;;;;;;6.85;2.10;;;;;;;14.88;100.00;99960.41;5030570;28;20104;-60
2023/08/02 00:24:05;;;;;;;6.75;2.80;;;;;;;14.84;100.00;99953.47;5032143;28;20037;-60
2023/08/02 00:26:31;;;;;;;7.07;2.70;;;;;;;14.81;100.00;99942.97;5030682;28;20072;-59
2023/08/02 00:28:56;;;;;;;5.05;2.80;;;;;;;14.81;100.00;99954.31;5030849;28;20053;-60
2023/08/02 00:31:21;;;;;;;5.07;2.55;;;;;;;14.78;100.00;99954.28;5030297;28;20029;-60
2023/08/02 00:33:47;;;;;;;6.18;2.67;;;;;;;14.77;100.00;99952.53;5031008;28;20025;-59
2023/08/02 00:36:12;;;;;;;4.22;2.63;;;;;;;14.76;100.00;99954.31;5030242;28;20087;-59
2023/08/02 00:38:37;;;;;;;4.70;2.40;;;;;;;14.75;100.00;99946.47;5031515;28;20428;-60
2023/08/02 00:41:06;;;;;;;9.32;3.03;;;;;;;14.71;100.00;99947.34;5029124;28;20045;-59
2023/08/02 00:43:42;;;;;;;6.03;2.80;;;;;;;14.68;100.00;99932.53;5035924;28;20027;-60
2023/08/02 00:46:09;;;;;;;7.13;2.88;;;;;;;14.69;100.00;99930.81;5047095;28;20417;-60
2023/08/02 00:48:34;;;;;;;4.28;2.40;;;;;;;14.70;100.00;99919.50;5029460;28;20423;-60
2023/08/02 00:51:01;;;;;;;5.93;2.75;;;;;;;14.71;100.00;99916.06;5028213;28;20473;-60
2023/08/02 00:53:27;;;;;;;6.32;2.83;;;;;;;14.71;100.00;99908.22;5041197;28;20075;-61
2023/08/02 00:55:53;;;;;;;6.97;2.47;;;;;;;14.72;100.00;99896.91;5028059;28;20033;-60
2023/08/02 00:58:19;;;;;;;4.85;2.63;;;;;;;14.73;100.00;99890.84;5027021;28;20021;-60
2023/08/02 01:00:44;;;;;;;7.35;2.65;;;;;;;14.73;100.00;99888.25;5040164;28;20476;-60
2023/08/02 01:03:09;;;;;;;6.72;2.88;;;;;;;14.74;100.00;99890.84;5029255;28;20033;-60
2023/08/02 01:05:40;;;;;;;6.55;3.10;;;;;;;14.76;100.00;99890.84;5040262;28;20175;-60
2023/08/02 01:08:07;;;;;;;;;;;;;;;14.76;100.00;99894.31;5042934;28;20633;-60
2023/08/02 01:10:45;;;;;;;;;;;;;;;14.79;100.00;99885.63;5029013;28;20296;-60
2023/08/02 01:13:13;;;;;;;;;;;;;;;14.82;100.00;99892.63;5029898;28;19917;-60
2023/08/02 01:15:39;;;;;;;;;;;;;;;14.81;100.00;99891.72;5030706;28;20273;-60
2023/08/02 01:18:05;;;;;;;;;;;;;;;14.85;100.00;99898.69;5029293;28;19909;-61
2023/08/02 01:20:30;;;;;;;;;;;;;;;14.87;100.00;99896.09;5030780;28;19975;-60
2023/08/02 01:22:55;;;;;;;;;;;;;;;14.89;100.00;99899.56;5029442;28;20003;-59
2023/08/02 01:25:21;;;;;;;;;;;;;;;14.91;100.00;99904.78;5029686;28;19917;-60
2023/08/02 01:27:48;;;;;;;;;;;;;;;14.89;100.00;99900.41;5029052;28;19999;-60
2023/08/02 01:30:15;;;;;;;;;;;;;;;14.91;100.00;99884.78;5030351;28;20025;-61
2023/08/02 01:32:40;;;;;;;;;;;;;;;14.92;100.00;99877.81;5028937;28;20345;-60
2023/08/02 01:35:06;;;;;;;;;;;;;;;14.93;100.00;99876.97;5030136;28;19924;-60
2023/08/02 01:37:32;;;;;;;;;;;;;;;14.94;100.00;99871.72;5029197;28;19935;-60
2023/08/02 01:39:58;;;;;;;;;;;;;;;14.95;100.00;99880.44;5030601;28;19909;-60
2023/08/02 01:42:23;;;;;;;;;;;;;;;14.96;100.00;99882.16;5029566;28;19936;-61
2023/08/02 01:44:48;;;;;;;;;;;;;;;14.96;100.00;99870.00;5030825;28;19912;-60
2023/08/02 01:47:15;;;;;;;;;;;;;;;14.98;100.00;99867.38;5040228;28;19923;-60
2023/08/02 01:49:41;;;;;;;;;;;;;;;14.98;100.00;99856.94;5046557;28;19928;-60
2023/08/02 01:52:06;;;;;;;;;;;;;;;15.00;100.00;99856.06;5047939;28;20369;-60
2023/08/02 01:54:31;;;;;;;;;;;;;;;15.01;100.00;99856.94;5050403;28;20211;-60
2023/08/02 01:56:56;;;;;;;;;;;;;;;15.00;100.00;99845.63;5045095;28;19908;-60
2023/08/02 01:59:21;;;;;;;;;;;;;;;15.00;100.00;99844.78;5032136;28;19959;-60
2023/08/02 02:01:47;;;;;;;;;;;;;;;15.01;100.00;99841.28;5051938;28;20355;-60
2023/08/02 02:04:12;;;;;;;;;;;;;;;15.01;100.00;99841.28;5051401;28;20372;-60
2023/08/02 02:06:37;;;;;;;;;;;;;;;14.99;100.00;99825.63;5051377;28;19916;-60
2023/08/02 02:09:02;;;;;;;;;;;;;;;15.00;100.00;99822.16;5050271;28;19923;-59
2023/08/02 02:11:27;;;;;;;;;;;;;;;14.99;100.00;99807.38;5051416;28;19909;-60
2023/08/02 02:13:53;;;;;;;;;;;;;;;14.99;100.00;99801.28;5050673;28;19999;-60
2023/08/02 02:16:18;;;;;;;;;;;;;;;14.99;100.00;99803.88;5050401;28;19908;-61
2023/08/02 02:18:43;;;;;;;;;;;;;;;14.98;100.00;99807.38;5050923;28;19908;-60
2023/08/02 02:21:08;;;;;;;;;;;;;;;14.96;100.00;99796.09;5051429;28;19944;-60
2023/08/02 02:23:33;;;;;;;;;;;;;;;14.95;100.00;99778.72;5050597;28;19920;-60
2023/08/02 02:25:58;;;;;;;;;;;;;;;14.95;100.00;99774.34;5050899;28;19909;-60
2023/08/02 02:28:24;;;;;;;;;;;;;;;14.94;100.00;99754.34;5050390;28;19916;-60
2023/08/02 02:30:49;;;;;;;;;;;;;;;14.95;100.00;99768.28;5051146;28;20266;-61
2023/08/02 02:33:14;;;;;;;;;;;;;;;14.96;100.00;99749.13;5050511;28;19919;-60
2023/08/02 02:35:39;;;;;;;;;;;;;;;14.98;100.00;99750.00;5050737;28;19936;-60
2023/08/02 02:38:05;;;;;;;;;;;;;;;14.97;100.00;99748.25;5050204;28;19950;-60
2023/08/02 02:40:30;;;;;;;;;;;;;;;14.99;100.00;99755.22;5050371;28;19912;-59
2023/08/02 02:42:55;;;;;;;;;;;;;;;15.00;100.00;99746.50;5050314;28;20371;-61
2023/08/02 02:45:20;;;;;;;;;;;;;;;15.03;100.00;99739.53;5049442;28;19909;-60
2023/08/02 02:47:45;;;;;;;;;;;;;;;15.04;100.00;99742.13;5050702;28;19970;-60
2023/08/02 02:50:10;;;;;;;;;;;;;;;15.01;100.00;99734.34;5050736;28;20011;-60
2023/08/02 02:52:36;;;;;;;;;;;;;;;15.02;100.00;99737.81;5050634;28;19908;-61
2023/08/02 02:55:01;;;;;;;;;;;;;;;15.05;100.00;99737.78;5027934;28;20269;-61
2023/08/02 02:57:26;;;;;;;;;;;;;;;15.06;100.00;99753.44;5042145;28;19912;-60
2023/08/02 02:59:52;;;;;;;;;;;;;;;15.08;100.00;99746.47;5048521;28;20275;-60
2023/08/02 03:02:18;;;;;;;;;;;;;;;15.06;100.00;99729.97;5050279;28;19916;-60
2023/08/02 03:04:43;;;;;;;;;;;;;;;15.08;100.00;99733.44;5039872;28;20369;-61
2023/08/02 03:07:09;;;;;;;;;;;;;;;15.09;100.00;99724.72;5029412;28;19952;-59
2023/08/02 03:09:34;;;;;;;;;;;;;;;15.08;100.00;99709.94;5036335;28;19924;-60
2023/08/02 03:12:00;;;;;;;;;;;;;;;15.08;100.00;99702.13;5050219;28;19912;-60
2023/08/02 03:14:25;;;;;;;;;;;;;;;15.10;100.00;99689.06;5049369;28;20373;-60
2023/08/02 03:16:50;;;;;;;;;;;;;;;15.07;100.00;99669.09;5047304;28;19909;-60
2023/08/02 03:19:15;;;;;;;;;;;;;;;15.07;100.00;99669.09;5050741;28;19913;-60
2023/08/02 03:21:41;;;;;;;;;;;;;;;15.08;100.00;99665.59;5046431;28;19954;-59
2023/08/02 03:24:06;;;;;;;;;;;;;;;15.08;100.00;99665.59;5029311;28;20361;-60
2023/08/02 03:26:32;;;;;;;;;;;;;;;15.08;100.00;99656.91;5030533;28;19909;-61
2023/08/02 03:28:57;;;;;;;;;;;;;;;15.07;100.00;99649.97;5030140;28;19913;-60
2023/08/02 03:31:22;;;;;;;;;;;;;;;15.07;100.00;99643.00;5047591;28;20379;-60
2023/08/02 03:33:47;;;;;;;;;;;;;;;15.06;100.00;99638.66;5049856;28;20371;-60
2023/08/02 03:36:12;;;;;;;;;;;;;;;15.07;100.00;99642.13;5039929;28;19966;-60
2023/08/02 03:38:38;;;;;;;;;;;;;;;15.08;100.00;99655.16;5046578;28;20320;-60
2023/08/02 03:41:03;;;;;;;;;;;;;;;15.05;100.00;99649.97;5049943;28;19916;-60
2023/08/02 03:43:28;;;;;;;;;;;;;;;15.06;100.00;99643.00;5048427;28;20385;-60
2023/08/02 03:45:54;;;;;;;;;;;;;;;15.05;100.00;99636.94;5049185;28;19913;-60
2023/08/02 03:48:19;;;;;;;;;;;;;;;15.04;100.00;99627.34;5034031;28;20368;-60
2023/08/02 03:50:44;;;;;;;;;;;;;;;15.05;100.00;99617.81;5030605;28;19913;-60
2023/08/02 03:53:09;;;;;;;;;;;;;;;15.06;100.00;99617.78;5030273;28;19912;-60
2023/08/02 03:55:34;;;;;;;;;;;;;;;15.06;100.00;99612.56;5030516;28;19920;-61
2023/08/02 03:58:00;;;;;;;;;;;;;;;15.06;100.00;99606.47;5031523;28;19909;-60
2023/08/02 04:00:25;;;;;;;;;;;;;;;15.05;100.00;99597.81;5029237;28;20395;-60
2023/08/02 04:02:50;;;;;;;;;;;;;;;15.05;100.00;99597.81;5030840;28;19905;-60
2023/08/02 04:05:15;;;;;;;;;;;;;;;15.05;100.00;99587.38;5029374;28;20018;-60
2023/08/02 04:07:41;;;;;;;;;;;;;;;15.05;100.00;99587.38;5041698;28;19912;-60
2023/08/02 04:10:06;;;;;;;;;;;;;;;15.05;100.00;99576.94;5028196;28;19913;-59
2023/08/02 04:12:31;;;;;;;;;;;;;;;15.04;100.00;99569.13;5028494;28;20375;-61
2023/08/02 04:14:56;;;;;;;;;;;;;;;15.04;100.00;99564.75;5028447;28;19912;-60
2023/08/02 04:17:22;;;;;;;;;;;;;;;15.04;100.00;99559.53;5028545;28;19908;-60
2023/08/02 04:19:47;;;;;;;;;;;;;;;15.03;100.00;99551.72;5028329;28;19920;-60
2023/08/02 04:22:12;;;;;;;;;;;;;;;15.01;100.00;99549.13;5027703;28;20364;-60
2023/08/02 04:24:37;;;;;;;;;;;;;;;15.02;100.00;99550.84;5018758;28;20016;-61
2023/08/02 04:27:03;;;;;;;;;;;;;;;14.99;100.00;99540.44;5008127;28;20411;-60
2023/08/02 04:29:28;;;;;;;;;;;;;;;14.98;100.00;99531.78;5019329;28;20233;-60
2023/08/02 04:31:54;;;;;;;;;;;;;;;14.97;100.00;99513.50;5007932;28;19936;-61
2023/08/02 04:34:19;;;;;;;;;;;;;;;14.97;100.00;99508.28;5007814;28;19924;-61
2023/08/02 04:36:44;;;;;;;;;;;;;;;14.97;100.00;99505.69;5008213;28;19913;-60
2023/08/02 04:39:10;;;;;;;;;;;;;;;14.98;100.00;99497.00;5008771;28;20000;-60
2023/08/02 04:41:36;;;;;;;;;;;;;;;14.92;100.00;99497.03;5008524;28;20340;-60
2023/08/02 04:44:01;;;;;;;;;;;;;;;14.89;100.00;99488.34;5009482;28;19956;-60
2023/08/02 04:46:29;;;;;;;;;;;;;;;14.91;100.00;99488.34;5021814;28;20032;-60
2023/08/02 04:48:54;;;;;;;;;;;;;;;14.91;100.00;99474.44;5018490;28;19917;-60
2023/08/02 04:51:20;;;;;;;;;;;;;;;14.92;100.00;99457.91;5022683;28;19913;-61
2023/08/02 04:53:47;;;;;;;;;;;;;;;14.92;100.00;99445.75;5028840;28;19913;-59
2023/08/02 04:56:13;;;;;;;;;;;;;;;14.94;100.00;99443.13;5007233;28;19948;-60
2023/08/02 04:58:38;;;;;;;;;;;;;;;14.94;100.00;99437.91;5016741;28;19998;-60
2023/08/02 05:01:04;;;;;;;;;;;;;;;14.95;100.00;99437.03;5028745;28;19941;-60
2023/08/02 05:03:30;;;;;;;;;;;;;;;14.97;100.00;99438.75;5028093;28;19913;-60
2023/08/02 05:05:58;;;;;;;;;;;;;;;14.99;100.00;99426.56;5026273;28;19920;-59
2023/08/02 05:08:23;;;;;;;;;;;;;;;14.99;100.00;99423.06;5019267;28;19920;-60
2023/08/02 05:10:49;;;;;;;;;;;;;;;15.00;100.00;99428.28;5009356;28;19914;-60
2023/08/02 05:13:14;;;;;;;;;;;;;;;14.99;100.00;99425.69;5021674;28;20004;-60
2023/08/02 05:15:39;;;;;;;;;;;;;;;15.03;100.00;99422.19;5009155;28;20025;-60
2023/08/02 05:18:04;;;;;;;;;;;;;;;15.00;100.00;99422.22;5035572;28;19916;-60
2023/08/02 05:20:31;;;;;;;;;;;;;;;15.00;100.00;99417.00;5014708;28;19920;-60
2023/08/02 05:22:56;;;;;;;;;;;;;;;14.98;100.00;99405.72;5020793;28;19913;-61
2023/08/02 05:25:21;;;;;;;;;;;;;;;14.97;100.00;99390.91;5021567;28;19928;-60
2023/08/02 05:27:47;;;;;;;;;;;;;;;14.96;100.00;99400.50;5015632;28;20013;-60
2023/08/02 05:30:12;;;;;;;;;;;;;;;14.95;100.00;99392.69;5014838;28;19932;-60
2023/08/02 05:32:37;;;;;;;;;;;;;;;14.94;100.00;99386.63;5008395;28;19913;-60
2023/08/02 05:35:03;;;;;;;;;;;;;;;14.91;100.00;99375.34;5008699;28;19991;-60
2023/08/02 05:37:29;;;;;;;;;;;;;;;14.92;100.00;99369.22;5008853;28;20282;-60
2023/08/02 05:39:55;;;;;;;;;;;;;;;14.89;100.00;99354.50;5009598;28;19998;-60
2023/08/02 05:42:20;;;;;;;;;;;;;;;14.89;100.00;99351.88;5025961;28;19917;-60
2023/08/02 05:44:45;;;;;;;;;;;;;;;14.86;100.00;99344.94;5033640;28;19909;-60
2023/08/02 05:47:10;;;;;;;;;;;;;;;14.86;100.00;99342.34;5025629;28;19913;-60
2023/08/02 05:49:35;;;;;;;;;;;;;;;14.87;100.00;99330.19;5024887;28;19917;-61
2023/08/02 05:52:00;;;;;;;;;;;;;;;14.83;100.00;99329.34;5021900;28;19972;-60
2023/08/02 05:54:26;;;;;;;;;;;;;;;14.81;100.00;99328.47;5009706;28;19913;-60
2023/08/02 05:56:51;;;;;;;;;;;;;;;14.86;100.00;99331.91;5025967;28;19913;-60
2023/08/02 05:59:16;;;;;;;;;;;;;;;14.83;100.00;99326.72;5025677;28;19920;-61
2023/08/02 06:01:41;;;;;;;;;;;;;;;14.86;100.00;99303.22;5025919;28;20567;-60
2023/08/02 06:04:06;;;;;;;;;;;;;;;14.85;100.00;99298.91;5028001;28;20019;-60
2023/08/02 06:06:31;;;;;;;;;;;;;;;14.87;100.00;99281.50;5026434;28;20273;-60
2023/08/02 06:08:57;;;;;;;;;;;;;;;14.88;100.00;99278.00;5015693;28;20016;-61
2023/08/02 06:11:24;;;;;;;;;;;;;;;14.86;100.00;99264.09;5024856;28;20353;-60
2023/08/02 06:13:49;;;;;;;;;;;;;;;14.87;100.00;99260.63;5026615;28;20164;-59
2023/08/02 06:16:14;;;;;;;;;;;;;;;14.88;100.00;99253.66;5013695;28;19913;-60
2023/08/02 06:18:40;;;;;;;;;;;;;;;14.90;100.00;99251.91;5015918;28;19952;-59
2023/08/02 06:21:06;;;;;;;;;;;;;;;14.88;100.00;99249.31;5017457;28;20116;-60
2023/08/02 06:23:31;;;;;;;;;;;;;;;14.89;100.00;99237.16;5023243;28;19929;-60
2023/08/02 06:25:56;;;;;;;;;;;;;;;14.88;100.00;99227.56;5021718;28;19921;-60
2023/08/02 06:28:21;;;;;;;;;;;;;;;14.91;100.00;99221.47;5018719;28;20031;-60
2023/08/02 06:30:47;;;;;;;;;;;;;;;14.91;100.00;99224.09;5014759;28;19917;-60
2023/08/02 06:33:12;;;;;;;;;;;;;;;14.88;100.00;99214.53;5026719;28;19919;-60
2023/08/02 06:35:37;;;;;;;;;;;;;;;14.89;100.00;99196.25;5018237;28;19967;-60
2023/08/02 06:38:02;;;;;;;;;;;;;;;14.92;100.00;99204.94;5030213;28;19909;-60
2023/08/02 06:40:27;;;;;;;;;;;;;;;14.94;100.00;99183.19;5024880;28;19912;-60
2023/08/02 06:42:52;;;;;;;;;;;;;;;14.96;100.00;99177.94;5040992;28;20466;-60
2023/08/02 06:45:18;;;;;;;;;;;;;;;14.95;100.00;99173.63;5023124;28;19917;-60
2023/08/02 06:47:43;;;;;;;;;;;;;;;14.97;100.00;99171.84;5028192;28;19944;-60
2023/08/02 06:50:08;;;;;;;;;;;;;;;14.95;100.00;99158.81;5028341;28;19925;-60
2023/08/02 06:52:33;;;;;;;;;;;;;;;14.95;100.00;99140.56;5026783;28;19949;-60
2023/08/02 06:54:58;;;;;;;;;;;;;;;14.95;100.00;99142.34;5024241;28;19909;-60
2023/08/02 06:57:24;;;;;;;;;;;;;;;14.94;100.00;99132.78;5016711;28;20004;-60
2023/08/02 06:59:52;;;;;;;;;;;;;;;14.95;100.00;99124.91;5022684;28;19912;-61
2023/08/02 07:02:18;;;;;;;;;;;;;;;14.99;100.00;99120.53;5027476;28;20377;-60
2023/08/02 07:04:43;;;;;;;;;;;;;;;15.00;100.00;99109.22;5033441;28;20008;-60
2023/08/02 07:07:08;;;;;;;;;;;;;;;15.02;100.00;99115.25;5029240;28;19909;-60
2023/08/02 07:09:33;;;;;;;;;;;;;;;15.01;100.00;99095.28;5014185;28;20101;-60
2023/08/02 07:11:59;;;;;;;;;;;;;;;14.99;100.00;99097.06;5018190;28;19917;-60
2023/08/02 07:14:24;;;;;;;;;;;;;;;15.00;100.00;99094.41;5020829;28;19913;-60
2023/08/02 07:16:49;;;;;;;;;;;;;;;15.00;100.00;99097.03;5022804;28;19913;-60
2023/08/02 07:19:14;;;;;;;;;;;;;;;15.02;100.00;99083.97;5019784;28;20389;-60
2023/08/02 07:21:39;;;;;;;;;;;;;;;15.00;100.00;99083.16;5022261;28;20221;-59
2023/08/02 07:24:05;;;;;;;;;;;;;;;15.05;100.00;99085.69;5020590;28;19920;-60
2023/08/02 07:26:30;;;;;;;;;;;;;;;15.06;100.00;99083.03;5024142;28;19917;-60
2023/08/02 07:28:55;;;;;;;;;;;;;;;15.08;100.00;99078.66;5022402;28;19964;-61
2023/08/02 07:31:20;;;;;;;;;;;;;;;15.08;100.00;99070.84;5020371;28;20098;-60
2023/08/02 07:33:46;;;;;;;;;;;;;;;15.10;100.00;99065.59;5023713;28;20065;-60
2023/08/02 07:36:13;;;;;;;;;;;;;;;15.09;100.00;99072.56;5026681;28;19917;-60
2023/08/02 07:38:38;;;;;;;;;;;;;;;15.12;100.00;99067.31;5027367;28;19928;-60
2023/08/02 07:41:06;;;;;;;;;;;;;;;15.13;100.00;99055.13;5019677;28;20192;-60
2023/08/02 07:43:32;;;;;;;;;;;;;;;15.17;100.00;99058.53;5025537;28;19927;-60
2023/08/02 07:45:57;;;;;;;;;;;;;;;15.19;100.00;99048.94;5020023;28;19909;-60
2023/08/02 07:48:22;;;;;;;;;;;;;;;15.24;100.00;99039.28;5026878;28;19909;-60
2023/08/02 07:50:47;;;;;;;;;;;;;;;15.25;100.00;99036.66;5027273;28;19917;-61
2023/08/02 07:53:12;;;;;;;;;;;;;;;15.32;100.00;99024.41;5027091;28;20379;-60
2023/08/02 07:55:37;;;;;;;;;;;;;;;15.37;100.00;99029.53;5025463;28;19930;-61
2023/08/02 07:58:03;;;;;;;;;;;;;;;15.42;100.00;99019.00;5028125;28;20312;-61
2023/08/02 08:00:28;;;;;;;;;;;;;;;15.48;100.00;99016.28;5027037;28;19913;-61
2023/08/02 08:02:53;;;;;;;;;;;;;;;15.52;100.00;99015.38;5029436;28;20379;-60
2023/08/02 08:05:18;;;;;;;;;;;;;;;15.55;100.00;99007.47;5026647;28;19912;-60
2023/08/02 08:07:43;;;;;;;;;;;;;;;15.56;100.00;99003.97;5024818;28;19912;-60
2023/08/02 08:10:09;;;;;;;;;;;;;;;15.60;100.00;99008.25;5027031;28;19913;-60
2023/08/02 08:12:35;;;;;;;;;;;;;;;15.65;100.00;99002.94;5026370;28;19921;-60
2023/08/02 08:15:00;;;;;;;;;;;;;;;15.66;100.00;98998.59;5023737;28;19912;-61
2023/08/02 08:17:26;;;;;;;;;;;;;;;15.68;100.00;98997.69;5019871;28;19925;-60
2023/08/02 08:19:51;;;;;;;;;;;;;;;15.72;100.00;98999.31;5020725;28;19913;-60
2023/08/02 08:22:18;;;;;;;;;;;;;;;15.76;100.00;98996.69;5013778;28;19917;-60
2023/08/02 08:24:44;;;;;;;;;;;;;;;15.78;100.00;98993.13;5010407;28;19928;-60
2023/08/02 08:27:09;;;;;;;;;;;;;;;15.81;100.00;98993.06;5014446;28;19933;-60
2023/08/02 08:29:34;;;;;;;;;;;;;;;15.83;100.00;98980.84;5011405;28;20011;-60
2023/08/02 08:31:59;;;;;;;;;;;;;;;15.86;100.00;98972.09;5013816;28;20395;-60
2023/08/02 08:34:25;;;;;;;;;;;;;;;15.89;100.00;98979.00;5017901;28;19913;-61
2023/08/02 08:36:50;;;;;;;;;;;;;;;15.94;100.00;98983.25;5027022;28;20523;-60
2023/08/02 08:39:18;;;;;;;;;;;;;;;15.99;100.00;98983.16;5005475;28;20448;-60
2023/08/02 08:41:43;;;;;;;;;;;;;;;16.04;100.00;98991.81;5010275;28;19917;-61
2023/08/02 08:44:08;;;;;;;;;;;;;;;16.08;100.00;98975.16;5016391;28;19913;-60
2023/08/02 08:46:34;;;;;;;;;;;;;;;16.12;100.00;98969.88;5026623;28;19921;-60
2023/08/02 08:48:59;;;;;;;;;;;;;;;16.17;100.00;98973.25;5015697;28;19921;-60
2023/08/02 08:51:25;;;;;;;;;;;;;;;16.22;100.00;98973.16;5011130;28;20270;-61
2023/08/02 08:53:50;;;;;;;;;;;;;;;16.26;100.00;98969.59;5031367;28;19912;-61
2023/08/02 08:56:17;;;;;;;;;;;;;;;16.36;100.00;98978.94;5028057;28;20364;-59
2023/08/02 08:58:43;;;;;;;;;;;;;;;16.41;100.00;98968.38;5036652;28;19995;-60
2023/08/02 09:01:08;;;;;;;;;;;;;;;16.47;100.00;98973.50;5031024;28;20043;-60
2023/08/02 09:03:34;;;;;;;;;;;;;;;16.57;100.00;98961.06;5027732;28;19912;-61
2023/08/02 09:06:00;;;;;;;;;;;;;;;16.64;100.00;98965.25;5026268;28;20157;-60
2023/08/02 09:08:25;;;;;;;;;;;;;;;16.74;100.00;98957.19;5028515;28;20028;-60
2023/08/02 09:10:50;;;;;;;;;;;;;;;16.82;100.00;98951.81;5040978;28;20316;-60
2023/08/02 09:13:22;;;;;;;;;;;;;;;16.92;100.00;98955.91;5028470;28;20324;-62
2023/08/02 09:16:03;;;;;;;;;;;;;;;16.99;100.00;98944.41;5023441;28;20523;-60
2023/08/02 09:18:41;;;;;;;;;;;;;;;17.09;100.00;98938.94;5027313;28;20399;-60
2023/08/02 09:21:07;;;;;;;;;;;;;;;17.20;100.00;98936.91;5033012;28;19916;-60
2023/08/02 09:23:32;;;;;;;;;;;;;;;17.33;100.00;98923.50;5030711;28;20333;-60
2023/08/02 09:26:08;;;;;;;;;;;;;;;17.43;100.00;98924.16;5028140;28;19917;-61
2023/08/02 09:28:34;;;;;;;;;;;;;;;17.55;100.00;98910.72;5021515;28;19913;-61
2023/08/02 09:31:12;;;;;;;;;;;;;;;17.59;100.00;98906.25;5033300;28;19916;-60
2023/08/02 09:33:47;;;;;;;;;;;;;;;17.66;100.00;98907.78;5022307;28;20377;-60
2023/08/02 09:36:20;;;;;;;;;;;;;;;17.77;100.00;98900.47;5020532;28;20313;-60
2023/08/02 09:38:53;;;;;;;;;;;;;;;17.92;100.00;98911.41;5024351;28;19908;-61
2023/08/02 09:41:22;;;;;;;;;;;;;;;18.00;100.00;98898.97;5035087;28;20273;-61
2023/08/02 09:43:47;;;;;;;;;;;;;;;17.94;100.00;98893.91;5025182;28;19921;-60
2023/08/02 09:46:24;;;;;;;;;;;;;;;17.98;100.00;98895.53;5028009;28;20077;-61
2023/08/02 09:48:49;;;;;;;;;;;;;;;18.02;100.00;98898.06;5028618;28;19919;-60
2023/08/02 09:51:14;;;;;;;;;;;;;;;18.03;100.00;98892.75;5027390;28;20283;-60
2023/08/02 09:53:40;;;;;;;;;;;;;;;18.08;100.00;98883.00;5025224;28;19916;-60
2023/08/02 09:56:06;;;;;;;;;;;;;;;18.21;100.00;98891.38;5033286;28;19915;-60
2023/08/02 09:58:35;;;;;;;;;;;;;;;18.35;100.00;98888.31;5015833;28;19913;-60
2023/08/02 10:01:01;;;;;;;;;;;;;;;18.47;100.00;98875.75;5016690;28;19921;-60
2023/08/02 10:03:28;;;;;;;;;;;;;;;18.55;100.00;98875.47;5019667;28;19924;-60
2023/08/02 10:05:55;;;;;;;;;;;;;;;18.53;100.00;98882.56;5027436;28;20016;-61
2023/08/02 10:08:21;;;;;;;;;;;;;;;18.54;100.00;98882.50;5027547;28;19920;-60
2023/08/02 10:10:48;;;;;;;;;;;;;;;18.52;100.00;98883.44;5014311;28;19913;-61
2023/08/02 10:13:22;;;;;;;;;;;;;;;18.53;100.00;98887.81;5022335;28;19917;-60
2023/08/02 10:15:49;;;;;;;;;;;;;;;18.55;100.00;98884.22;5024063;28;20235;-61
2023/08/02 10:18:15;;;;;;;;;;;;;;;18.65;100.00;98878.69;5020003;28;19917;-60
2023/08/02 10:20:41;;;;;;;;;;;;;;;18.78;100.00;98858.16;5028011;28;20383;-60
2023/08/02 10:23:08;;;;;;;;;;;;;;;19.01;100.00;98859.13;5028611;28;19913;-61
2023/08/02 10:25:35;;;;;;;;;;;;;;;19.21;100.00;98845.34;5028104;28;19925;-61
2023/08/02 10:28:00;;;;;;;;;;;;;;;19.51;100.00;98836.38;5026044;28;19924;-60
2023/08/02 10:30:26;;;;;;;;;;;;;;;19.79;100.00;98830.09;5025897;28;19917;-60
2023/08/02 10:33:11;;;;;;;;;;;;;;;19.85;100.00;98835.13;5012592;28;19948;-60
2023/08/02 10:35:55;;;;;;;;;;;;;;;19.90;100.00;98838.41;5015629;28;19909;-61
2023/08/02 10:38:43;;;;;;;;;;;;;;;19.76;100.00;98832.84;5015573;28;19913;-61
2023/08/02 10:41:13;;;;;;;;;;;;;;;19.67;100.00;98837.53;5004754;28;19913;-60
2023/08/02 10:43:54;;;;;;;;;;;;;;;19.70;100.00;98833.09;5026276;28;19940;-61
2023/08/02 10:46:21;;;;;;;;;;;;;;;19.68;100.00;98810.34;5029031;28;20375;-61
2023/08/02 10:48:46;;;;;;;;;;;;;;;19.71;100.00;98816.41;5032644;28;20007;-60
2023/08/02 10:51:26;;;;;;;;;;;;;;;19.58;100.00;98811.59;5036518;28;19960;-60
2023/08/02 10:54:11;;;;;;;;;;;;;;;19.58;100.00;98831.75;5023685;28;19913;-60
2023/08/02 10:56:51;;;;;;;;;;;;;;;19.39;100.00;98821.94;5024122;28;19931;-60
2023/08/02 10:59:37;;;;;;;;;;;;;;;19.30;100.00;98816.09;5029572;28;20301;-60
2023/08/02 11:02:04;;;;;;;;;;;;;;;19.18;100.00;98782.44;5030470;28;19913;-61
2023/08/02 11:04:30;;;;;;;;;;;;;;;19.12;100.00;98778.28;5028736;28;19925;-60
2023/08/02 11:07:09;;;;;;;;;;;;;;;19.14;100.00;98775.59;5028063;28;20436;-61
2023/08/02 11:09:34;;;;;;;;;;;;;;;19.15;100.00;98783.41;5019440;28;20021;-60
2023/08/02 11:12:10;;;;;;;;;;;;;;;19.15;100.00;98787.78;5028653;28;19928;-61
2023/08/02 11:14:36;;;;;;;;;;;;;;;19.13;100.00;98789.63;5026821;28;19920;-60
2023/08/02 11:17:01;;;;;;;;;;;;;;;19.04;100.00;98801.28;5021716;28;19909;-60
2023/08/02 11:19:28;;;;;;;;;;;;;;;19.03;100.00;98794.31;5025457;28;19917;-61
2023/08/02 11:21:54;;;;;;;;;;;;;;;19.06;100.00;98781.94;5016643;28;19955;-60
2023/08/02 11:24:20;;;;;;;;;;;;;;;19.06;100.00;98789.81;5026418;28;19955;-60
2023/08/02 11:26:58;;;;;;;;;;;;;;;19.00;100.00;98773.41;5021723;28;19975;-60
2023/08/02 11:29:24;;;;;;;;;;;;;;;18.95;100.00;98784.97;5016787;28;19928;-61
2023/08/02 11:31:53;;;;;;;;;;;;;;;18.86;100.00;98785.28;5012558;28;20304;-61
2023/08/02 11:34:18;;;;;;;;;;;;;;;18.64;100.00;98772.03;5014640;28;19921;-60
2023/08/02 11:36:47;;;;;;;;;;;;;;;18.66;100.00;98788.56;5016549;28;19960;-60
2023/08/02 11:39:13;;;;;;;;;;;;;;;18.82;100.00;98784.53;5011448;28;19920;-61
2023/08/02 11:41:38;;;;;;;;;;;;;;;19.04;100.00;98781.13;5012509;28;19960;-60
2023/08/02 11:44:13;;;;;;;;;;;;;;;19.29;100.00;98789.91;5010991;28;19913;-61
2023/08/02 11:46:38;;;;;;;;;;;;;;;19.41;100.00;98778.13;5026268;28;19913;-62
2023/08/02 11:49:04;;;;;;;;;;;;;;;19.59;100.00;98781.78;5022972;28;19979;-61
2023/08/02 11:51:30;;;;;;;;;;;;;;;19.75;100.00;98781.22;5026793;28;20103;-62
2023/08/02 11:53:56;;;;;;;;;;;;;;;19.94;100.00;98783.09;5028616;28;19991;-61
2023/08/02 11:56:22;;;;;;;;;;;;;;;20.13;100.00;98775.41;5026648;28;19920;-62
2023/08/02 11:58:48;;;;;;;;;;;;;;;20.27;100.00;98787.97;5027123;28;19913;-62
2023/08/02 12:01:13;;;;;;;;;;;;;;;20.42;100.00;98786.47;5027023;28;19920;-63
2023/08/02 12:03:38;;;;;;;;;;;;;;;20.60;100.00;98778.72;5020433;28;20396;-62
2023/08/02 12:06:03;;;;;;;;;;;;;;;20.75;100.00;98793.00;5019673;28;19916;-61
2023/08/02 12:08:28;;;;;;;;;;;;;;;20.94;100.00;98773.78;5020912;28;20534;-61
2023/08/02 12:10:54;;;;;;;;;;;;;;;21.13;100.00;98773.00;5020791;28;19909;-62
2023/08/02 12:13:19;;;;;;;;;;;;;;;21.31;100.00;98781.84;5008400;28;19913;-61
2023/08/02 12:16:01;;;;;;;;;;;;;;;21.47;100.00;98779.34;5022440;28;20308;-61
2023/08/02 12:18:26;;;;;;;;;;;;;;;21.69;100.00;98779.22;5027793;28;20160;-61
2023/08/02 12:20:51;;;;;;;;;;;;;;;21.75;100.00;98783.31;5023394;28;19932;-62
2023/08/02 12:23:29;;;;;;;;;;;;;;;21.73;100.00;98779.91;5025509;28;19932;-62
2023/08/02 12:25:55;;;;;;;;;;;;;;;21.62;100.00;98771.66;5026207;28;20345;-61
2023/08/02 12:28:20;;;;;;;;;;;;;;;21.47;100.00;98763.56;5026231;28;19920;-60